Time;durP1;ratioP1;P1;durP2;ratioP2;P2;SDS_P1;SDS_P2;PMS_P1;PMS_P2;Temp;Humidity;BMP_temperature;BMP_pressure;BME280_temperature;BME280_humidity;BME280_pressure;Samples;Min_cycle;Max_cycle;Signal;HPM_P1;HPM_P2
2022/07/02 00:01:49;;;;;;;554.63;528.13;;;11.40;99.90;;;;;;5007003;28;20446;-84
2022/07/02 00:04:19;;;;;;;593.77;563.57;;;11.40;99.90;;;;;;5007907;28;20459;-83
2022/07/02 00:06:47;;;;;;;585.97;555.47;;;11.30;99.90;;;;;;5007066;28;20544;-83
2022/07/02 00:09:15;;;;;;;609.87;578.07;;;11.30;99.90;;;;;;5008046;28;20510;-85
2022/07/02 00:11:43;;;;;;;591.77;561.37;;;11.30;99.90;;;;;;5006539;28;20451;-83
2022/07/02 00:14:10;;;;;;;615.43;582.93;;;11.30;99.90;;;;;;5007562;28;20464;-83
2022/07/02 00:16:37;;;;;;;625.27;592.50;;;11.20;99.90;;;;;;5007907;28;20526;-84
2022/07/02 00:19:05;;;;;;;680.53;643.33;;;11.20;99.90;;;;;;5007718;28;20557;-84
2022/07/02 00:21:33;;;;;;;698.43;659.23;;;11.10;99.90;;;;;;5007770;28;20558;-84
2022/07/02 00:24:00;;;;;;;680.10;642.87;;;11.30;99.90;;;;;;5006972;28;20461;-83
2022/07/02 00:26:29;;;;;;;666.57;630.60;;;11.30;99.90;;;;;;5007779;28;20450;-83
2022/07/02 00:29:02;;;;;;;619.93;587.73;;;11.40;99.90;;;;;;5007135;28;20469;-83
2022/07/02 00:31:29;;;;;;;569.50;541.67;;;11.40;99.90;;;;;;5007263;28;20450;-84
2022/07/02 00:33:57;;;;;;;582.47;553.80;;;11.40;99.90;;;;;;5007413;28;20454;-85
2022/07/02 00:36:27;;;;;;;575.73;548.27;;;11.40;99.90;;;;;;5007319;28;20454;-84
2022/07/02 00:38:54;;;;;;;582.27;554.20;;;11.40;99.90;;;;;;5007322;28;20513;-84
2022/07/02 00:41:22;;;;;;;577.50;550.50;;;11.40;99.90;;;;;;5007656;28;21069;-83
2022/07/02 00:43:49;;;;;;;609.37;578.87;;;11.30;99.90;;;;;;5007127;28;20454;-83
2022/07/02 00:46:18;;;;;;;589.90;560.70;;;11.30;99.90;;;;;;5007353;28;20481;-84
2022/07/02 00:48:45;;;;;;;619.10;587.50;;;11.20;99.90;;;;;;5007816;28;20556;-84
2022/07/02 00:51:12;;;;;;;655.57;621.13;;;11.10;99.90;;;;;;5007420;28;20474;-83
2022/07/02 00:53:40;;;;;;;720.13;679.60;;;11.10;99.90;;;;;;5006739;28;20449;-82
2022/07/02 00:56:06;;;;;;;731.07;689.20;;;11.10;99.90;;;;;;5007852;28;20450;-83
2022/07/02 00:58:33;;;;;;;736.97;693.90;;;11.20;99.90;;;;;;5007169;28;20573;-83
2022/07/02 01:01:01;;;;;;;749.83;706.07;;;11.10;99.90;;;;;;5007286;28;20469;-83
2022/07/02 01:03:31;;;;;;;726.47;684.43;;;11.10;99.90;;;;;;5007012;28;20537;-83
2022/07/02 01:05:58;;;;;;;744.23;701.83;;;11.10;99.90;;;;;;5006794;28;20822;-84
2022/07/02 01:11:13;;;;;;;773.70;726.97;;;10.90;99.90;;;;;;5006981;28;20518;-83
2022/07/02 01:13:40;;;;;;;794.83;744.93;;;10.90;99.90;;;;;;5007749;28;20525;-82
2022/07/02 01:16:07;;;;;;;779.73;732.67;;;10.90;99.90;;;;;;5007024;28;20450;-83
2022/07/02 01:18:34;;;;;;;779.07;733.00;;;10.70;99.90;;;;;;5006820;28;20485;-83
2022/07/02 01:21:01;;;;;;;803.10;754.30;;;10.60;99.90;;;;;;5008047;28;20465;-83
2022/07/02 01:23:29;;;;;;;770.87;724.53;;;10.60;99.90;;;;;;5007146;28;20452;-83
2022/07/02 01:25:56;;;;;;;799.77;750.40;;;10.60;99.90;;;;;;5007554;28;20533;-83
2022/07/02 01:28:23;;;;;;;828.93;778.77;;;10.60;99.90;;;;;;5007414;28;21039;-84
2022/07/02 01:30:52;;;;;;;872.90;815.87;;;10.50;99.90;;;;;;5007260;28;20991;-83
2022/07/02 01:33:19;;;;;;;874.87;815.30;;;10.50;99.90;;;;;;5007218;28;20454;-83
2022/07/02 01:35:46;;;;;;;860.17;801.73;;;10.60;99.90;;;;;;5007543;28;20546;-84
2022/07/02 01:38:12;;;;;;;863.23;804.70;;;10.70;99.90;;;;;;5011087;28;20492;-83
2022/07/02 01:40:41;;;;;;;825.70;772.63;;;10.70;99.90;;;;;;5011131;28;20469;-84
2022/07/02 01:43:07;;;;;;;801.47;751.57;;;10.70;99.90;;;;;;5010985;28;20481;-84
2022/07/02 01:45:34;;;;;;;791.57;743.80;;;10.50;99.90;;;;;;5010530;28;20456;-83
2022/07/02 01:48:01;;;;;;;804.73;755.60;;;10.50;99.90;;;;;;5010581;28;20546;-84
2022/07/02 01:50:28;;;;;;;800.10;751.53;;;10.50;99.90;;;;;;5009944;28;20827;-83
2022/07/02 01:52:56;;;;;;;771.53;725.07;;;10.40;99.90;;;;;;5010454;28;20454;-84
2022/07/02 01:55:24;;;;;;;758.13;713.03;;;10.50;99.90;;;;;;5010383;28;20446;-83
2022/07/02 01:57:53;;;;;;;772.03;725.43;;;10.40;99.90;;;;;;5010601;28;20473;-84
2022/07/02 02:00:20;;;;;;;707.90;668.73;;;10.50;99.90;;;;;;5009990;28;20522;-83
2022/07/02 02:02:47;;;;;;;808.87;760.47;;;10.40;99.90;;;;;;5010448;28;20614;-83
2022/07/02 02:05:14;;;;;;;890.93;830.47;;;10.40;99.90;;;;;;5010776;28;20508;-83
2022/07/02 02:07:41;;;;;;;863.47;804.67;;;10.60;99.90;;;;;;5010903;28;21059;-83
2022/07/02 02:10:09;;;;;;;819.60;768.20;;;10.60;99.90;;;;;;5011203;28;20489;-83
2022/07/02 02:12:36;;;;;;;810.87;760.17;;;10.40;99.90;;;;;;5010590;28;20465;-83
2022/07/02 02:15:05;;;;;;;809.77;759.80;;;10.40;99.90;;;;;;5010724;28;20457;-83
2022/07/02 02:17:32;;;;;;;804.30;755.73;;;10.30;99.90;;;;;;5010657;28;20480;-83
2022/07/02 02:19:58;;;;;;;846.47;793.63;;;10.30;99.90;;;;;;5009843;28;20517;-83
2022/07/02 02:22:25;;;;;;;823.30;772.70;;;10.30;99.90;;;;;;5009836;28;20518;-83
2022/07/02 02:24:52;;;;;;;837.20;784.10;;;10.30;99.90;;;;;;5009817;28;20454;-83
2022/07/02 02:27:19;;;;;;;835.07;782.20;;;10.30;99.90;;;;;;5010023;28;20510;-83
2022/07/02 02:29:45;;;;;;;849.90;796.63;;;10.30;99.90;;;;;;5009783;28;20442;-83
2022/07/02 02:32:14;;;;;;;854.00;798.40;;;10.20;99.90;;;;;;5009900;28;20448;-83
2022/07/02 02:34:41;;;;;;;872.90;813.70;;;10.20;99.90;;;;;;5010591;28;20446;-83
2022/07/02 02:37:07;;;;;;;871.43;812.33;;;10.30;99.90;;;;;;5008839;28;20480;-83
2022/07/02 02:39:34;;;;;;;870.93;813.03;;;10.40;99.90;;;;;;5009627;28;20480;-83
2022/07/02 02:42:01;;;;;;;856.47;798.53;;;10.30;99.90;;;;;;5009959;28;20450;-83
2022/07/02 02:44:28;;;;;;;851.80;792.20;;;10.30;99.90;;;;;;5009635;28;20465;-84
2022/07/02 02:46:55;;;;;;;854.57;795.27;;;10.40;99.90;;;;;;5009003;28;20454;-84
2022/07/02 02:49:23;;;;;;;857.13;799.23;;;10.40;99.90;;;;;;5009791;28;20446;-83
2022/07/02 02:51:49;;;;;;;845.03;788.93;;;10.40;99.90;;;;;;5010949;28;20450;-83
2022/07/02 02:54:16;;;;;;;841.17;784.30;;;10.30;99.90;;;;;;5009261;28;20453;-83
2022/07/02 02:56:43;;;;;;;827.37;772.47;;;10.50;99.90;;;;;;5010008;28;20460;-83
2022/07/02 02:59:10;;;;;;;796.83;746.53;;;10.60;99.90;;;;;;5009779;28;20533;-83
2022/07/02 03:01:36;;;;;;;786.00;738.63;;;10.50;99.90;;;;;;5010043;28;21025;-83
2022/07/02 03:04:03;;;;;;;769.43;721.93;;;10.50;99.90;;;;;;5009709;28;20462;-83
2022/07/02 03:06:31;;;;;;;779.77;732.40;;;10.50;99.90;;;;;;5008785;28;20461;-83
2022/07/02 03:08:58;;;;;;;796.90;747.80;;;10.50;99.90;;;;;;5009074;28;20476;-83
2022/07/02 03:11:25;;;;;;;784.70;737.90;;;10.50;99.90;;;;;;5009523;28;20450;-83
2022/07/02 03:13:52;;;;;;;787.50;740.20;;;10.40;99.90;;;;;;5008789;28;20446;-83
2022/07/02 03:16:18;;;;;;;782.83;736.43;;;10.40;99.90;;;;;;5009557;28;20457;-83
2022/07/02 03:18:46;;;;;;;765.13;720.70;;;10.50;99.90;;;;;;5009437;28;20482;-83
2022/07/02 03:21:13;;;;;;;756.07;713.97;;;10.40;99.90;;;;;;5009829;28;20443;-84
2022/07/02 03:23:44;;;;;;;767.33;722.63;;;10.50;99.90;;;;;;5009862;28;20485;-85
2022/07/02 03:26:10;;;;;;;774.23;730.10;;;10.50;99.90;;;;;;5010486;28;20460;-83
2022/07/02 03:28:37;;;;;;;780.87;735.00;;;10.60;99.90;;;;;;5007477;28;20992;-82
2022/07/02 03:31:04;;;;;;;760.60;716.60;;;10.60;99.90;;;;;;5008158;28;20455;-82
2022/07/02 03:33:31;;;;;;;734.10;692.70;;;10.60;99.90;;;;;;5008149;28;20450;-82
2022/07/02 03:35:58;;;;;;;737.33;695.47;;;10.60;99.90;;;;;;5007599;28;20489;-84
2022/07/02 03:38:24;;;;;;;790.60;744.50;;;10.70;99.90;;;;;;5007628;28;20478;-83
2022/07/02 03:40:53;;;;;;;809.77;761.23;;;10.70;99.90;;;;;;5007982;28;20969;-82
2022/07/02 03:43:19;;;;;;;850.10;795.90;;;10.70;99.90;;;;;;5007221;28;20488;-82
2022/07/02 03:45:46;;;;;;;848.00;793.67;;;10.70;99.90;;;;;;5007161;28;20460;-83
2022/07/02 03:48:13;;;;;;;847.93;794.03;;;10.70;99.90;;;;;;5006971;28;20478;-82
2022/07/02 03:50:42;;;;;;;866.53;809.47;;;10.60;99.90;;;;;;5007711;28;20464;-81
2022/07/02 03:53:09;;;;;;;861.47;805.37;;;10.70;99.90;;;;;;5008322;28;20477;-82
2022/07/02 03:55:36;;;;;;;863.67;807.70;;;10.60;99.90;;;;;;5008084;28;20521;-82
2022/07/02 03:58:04;;;;;;;865.93;811.93;;;10.70;99.90;;;;;;5007674;28;20473;-84
2022/07/02 04:00:31;;;;;;;869.03;814.53;;;10.70;99.90;;;;;;5007219;28;20452;-84
2022/07/02 04:02:57;;;;;;;874.47;819.77;;;10.50;99.90;;;;;;5007751;28;20458;-83
2022/07/02 04:05:24;;;;;;;867.90;811.60;;;10.60;99.90;;;;;;5007654;28;20464;-82
2022/07/02 04:07:51;;;;;;;881.60;823.60;;;10.50;99.90;;;;;;5007532;28;20478;-83
2022/07/02 04:10:18;;;;;;;888.67;829.77;;;10.60;99.90;;;;;;5007948;28;20500;-82
2022/07/02 04:12:45;;;;;;;892.73;831.80;;;10.40;99.90;;;;;;5007542;28;20461;-82
2022/07/02 04:15:13;;;;;;;892.80;832.70;;;10.60;99.90;;;;;;5007349;28;20458;-82
2022/07/02 04:17:40;;;;;;;885.10;826.00;;;10.60;99.90;;;;;;5008205;28;20482;-82
2022/07/02 04:20:07;;;;;;;906.87;845.17;;;10.60;99.90;;;;;;5008954;28;20481;-82
2022/07/02 04:22:34;;;;;;;901.67;838.23;;;10.60;99.90;;;;;;5008235;28;20460;-83
2022/07/02 04:25:01;;;;;;;886.80;821.70;;;10.70;99.90;;;;;;5008091;28;20462;-81
2022/07/02 04:27:28;;;;;;;881.27;816.90;;;10.80;99.90;;;;;;5008093;28;20474;-82
2022/07/02 04:29:57;;;;;;;881.50;816.10;;;10.70;99.90;;;;;;5008004;28;20958;-81
2022/07/02 04:32:25;;;;;;;886.47;821.27;;;10.80;99.90;;;;;;5008300;28;20470;-82
2022/07/02 04:34:52;;;;;;;889.80;824.40;;;10.90;99.90;;;;;;5007556;28;20458;-81
2022/07/02 04:37:20;;;;;;;895.67;832.60;;;10.90;99.90;;;;;;5007702;28;20517;-81
2022/07/02 04:39:46;;;;;;;903.60;840.77;;;10.80;99.90;;;;;;5007963;28;20474;-82
2022/07/02 04:42:13;;;;;;;894.10;830.20;;;10.90;99.90;;;;;;5008503;28;20481;-82
2022/07/02 04:44:40;;;;;;;892.33;829.67;;;10.90;99.90;;;;;;5008078;28;20518;-81
2022/07/02 04:47:07;;;;;;;893.27;830.80;;;11.10;99.90;;;;;;5007881;28;20484;-81
2022/07/02 04:49:36;;;;;;;884.50;821.20;;;11.10;99.90;;;;;;5007563;28;20454;-82
2022/07/02 04:52:03;;;;;;;887.17;824.07;;;11.30;99.90;;;;;;5007375;28;20470;-82
2022/07/02 04:54:30;;;;;;;887.73;824.27;;;11.30;99.90;;;;;;5007195;28;20458;-82
2022/07/02 04:56:57;;;;;;;882.17;818.50;;;11.40;99.90;;;;;;5007080;28;20458;-82
2022/07/02 04:59:26;;;;;;;881.80;815.90;;;11.50;99.90;;;;;;5006864;28;20474;-82
2022/07/02 05:01:56;;;;;;;882.47;818.03;;;11.60;99.90;;;;;;5006843;28;20958;-82
2022/07/02 05:04:26;;;;;;;883.97;821.03;;;11.70;99.90;;;;;;5006487;28;20457;-82
2022/07/02 05:07:00;;;;;;;873.77;812.20;;;11.80;99.90;;;;;;5006454;28;20447;-82
2022/07/02 05:09:29;;;;;;;872.30;812.73;;;11.90;99.90;;;;;;5006966;28;20438;-82
2022/07/02 05:11:56;;;;;;;867.33;808.80;;;11.90;99.90;;;;;;5007190;28;20462;-81
2022/07/02 05:14:23;;;;;;;870.80;811.60;;;12.00;99.90;;;;;;5011705;28;20524;-83
2022/07/02 05:16:53;;;;;;;864.37;808.27;;;12.20;99.90;;;;;;5011881;28;20902;-81
2022/07/02 05:19:31;;;;;;;858.33;801.83;;;12.30;99.90;;;;;;5010758;28;20477;-82
2022/07/02 05:22:40;;;;;;;802.70;742.67;;;12.50;99.90;;;;;;4993690;28;20458;-82
2022/07/02 05:25:14;;;;;;;651.07;616.40;;;13.10;99.90;;;;;;5011390;28;20454;-84
2022/07/02 05:27:43;;;;;;;150.80;144.47;;;13.80;99.90;;;;;;4994462;28;20481;-81
2022/07/02 05:30:13;;;;;;;17.37;16.20;;;14.80;99.90;;;;;;5011565;28;20446;-81
2022/07/02 05:32:40;;;;;;;6.20;3.13;;;15.30;99.90;;;;;;5010974;28;20451;-82
2022/07/02 05:35:08;;;;;;;6.13;2.00;;;15.90;99.90;;;;;;5011114;28;20457;-82
2022/07/02 05:37:39;;;;;;;4.13;2.00;;;16.60;98.90;;;;;;5010773;28;20509;-82
2022/07/02 05:40:07;;;;;;;7.53;1.73;;;17.00;93.90;;;;;;5004165;28;20502;-79
2022/07/02 05:42:37;;;;;;;4.57;1.43;;;17.60;93.20;;;;;;5002174;28;20541;-84
2022/07/02 05:45:21;;;;;;;4.33;1.83;;;18.10;89.90;;;;;;5002014;28;20461;-83
2022/07/02 05:47:59;;;;;;;3.53;1.37;;;18.50;87.70;;;;;;5004280;28;20519;-82
2022/07/02 05:50:26;;;;;;;6.57;2.00;;;19.20;83.30;;;;;;5003597;28;20970;-85
2022/07/02 05:52:54;;;;;;;4.20;1.43;;;19.50;77.70;;;;;;5004707;28;20465;-82
2022/07/02 05:55:22;;;;;;;5.93;1.37;;;20.00;75.60;;;;;;5004032;28;20526;-82
2022/07/02 05:57:48;;;;;;;5.40;1.70;;;20.20;74.00;;;;;;5002649;28;20563;-82
2022/07/02 06:00:16;;;;;;;5.20;1.50;;;20.70;70.70;;;;;;5001335;28;20475;-81
2022/07/02 06:02:42;;;;;;;8.80;1.50;;;20.60;65.30;;;;;;4999811;28;20506;-82
2022/07/02 06:07:55;;;;;;;3.97;1.10;;;20.90;60.20;;;;;;4997028;28;20464;-84
2022/07/02 06:10:22;;;;;;;4.73;1.60;;;21.00;59.50;;;;;;4998498;28;20520;-83
2022/07/02 06:12:51;;;;;;;5.57;1.60;;;21.40;60.20;;;;;;4998852;28;20465;-83
2022/07/02 06:15:19;;;;;;;5.73;1.50;;;21.30;57.50;;;;;;5002199;28;20448;-82
2022/07/02 06:17:47;;;;;;;6.30;1.53;;;21.70;54.80;;;;;;5002826;28;20490;-82
2022/07/02 06:20:17;;;;;;;7.27;1.60;;;21.50;53.90;;;;;;5003201;28;20489;-83
2022/07/02 06:22:43;;;;;;;3.90;1.00;;;21.80;55.00;;;;;;5002553;28;20879;-83
2022/07/02 06:25:12;;;;;;;5.70;1.73;;;21.90;50.10;;;;;;5002906;28;20484;-83
2022/07/02 06:27:38;;;;;;;8.30;1.53;;;22.00;48.70;;;;;;5002388;28;20472;-83
2022/07/02 06:30:07;;;;;;;5.00;1.40;;;21.80;47.30;;;;;;5002680;28;20458;-83
2022/07/02 06:32:34;;;;;;;6.73;1.40;;;21.90;48.00;;;;;;5002959;28;20457;-83
2022/07/02 06:35:00;;;;;;;4.10;1.07;;;22.10;47.40;;;;;;5001540;28;20468;-83
2022/07/02 06:37:28;;;;;;;9.10;1.43;;;22.30;49.30;;;;;;5002314;28;20568;-83
2022/07/02 06:39:54;;;;;;;4.93;1.20;;;22.30;44.80;;;;;;5001447;28;20530;-81
2022/07/02 06:42:28;;;;;;;5.83;1.20;;;22.40;44.20;;;;;;5001769;28;20497;-83
2022/07/02 06:44:56;;;;;;;4.87;1.60;;;22.50;42.40;;;;;;5001399;28;20473;-83
2022/07/02 06:47:24;;;;;;;18.53;1.50;;;22.60;43.20;;;;;;5000690;28;20485;-83
2022/07/02 06:49:52;;;;;;;4.80;1.60;;;22.90;44.00;;;;;;4999559;28;20458;-83
2022/07/02 06:52:19;;;;;;;4.73;1.47;;;22.90;44.20;;;;;;4999557;28;20464;-82
2022/07/02 06:54:47;;;;;;;5.47;1.40;;;23.00;42.30;;;;;;4998936;28;20469;-83
2022/07/02 06:57:15;;;;;;;4.53;1.10;;;23.00;41.30;;;;;;4998989;28;20832;-83
2022/07/02 06:59:43;;;;;;;5.80;1.10;;;23.20;38.30;;;;;;4997764;28;20477;-83
2022/07/02 07:02:11;;;;;;;5.53;1.60;;;23.20;36.90;;;;;;4998722;28;20486;-83
2022/07/02 07:04:38;;;;;;;6.50;1.63;;;23.50;41.30;;;;;;4998270;28;20457;-83
2022/07/02 07:07:25;;;;;;;4.10;1.20;;;23.50;37.60;;;;;;4997494;28;20477;-84
2022/07/02 07:10:01;;;;;;;5.20;1.30;;;23.50;32.80;;;;;;4999910;28;20454;-82
2022/07/02 07:12:28;;;;;;;4.43;1.43;;;23.40;30.50;;;;;;5006850;28;20491;-82
2022/07/02 07:15:00;;;;;;;3.90;1.10;;;23.60;32.30;;;;;;5006558;28;20450;-83
2022/07/02 07:17:27;;;;;;;4.47;1.00;;;24.00;32.30;;;;;;5006847;28;20482;-82
2022/07/02 07:19:54;;;;;;;4.23;1.40;;;24.00;29.90;;;;;;5007303;28;20469;-82
2022/07/02 07:22:23;;;;;;;4.13;1.20;;;23.90;31.20;;;;;;5007835;28;20480;-82
2022/07/02 07:24:50;;;;;;;5.13;1.20;;;24.20;28.90;;;;;;5006611;28;20466;-82
2022/07/02 07:27:18;;;;;;;4.13;1.03;;;24.20;27.90;;;;;;5007360;28;20505;-82
2022/07/02 07:29:46;;;;;;;6.50;1.60;;;23.90;28.20;;;;;;5007726;28;20874;-83
2022/07/02 07:32:15;;;;;;;7.43;1.27;;;24.20;27.70;;;;;;5006090;28;20446;-82
2022/07/02 07:34:41;;;;;;;5.23;1.40;;;24.30;24.70;;;;;;5006261;28;20489;-82
2022/07/02 07:37:08;;;;;;;8.50;1.17;;;24.50;27.20;;;;;;5006236;28;20482;-82
2022/07/02 07:39:35;;;;;;;5.53;1.60;;;24.50;22.90;;;;;;5006747;28;20477;-82
2022/07/02 07:42:07;;;;;;;4.10;1.10;;;24.40;24.70;;;;;;5006723;28;20834;-82
2022/07/02 07:44:35;;;;;;;4.63;1.27;;;24.60;27.50;;;;;;5006235;28;20953;-83
2022/07/02 07:47:02;;;;;;;7.93;1.40;;;24.70;23.20;;;;;;5006477;28;20465;-82
2022/07/02 07:49:33;;;;;;;8.37;1.50;;;24.70;24.50;;;;;;5006803;28;20526;-84
2022/07/02 07:52:00;;;;;;;4.47;1.17;;;24.70;21.60;;;;;;5006345;28;20445;-82
2022/07/02 07:54:33;;;;;;;5.40;1.63;;;25.00;21.80;;;;;;5005233;28;20457;-82
2022/07/02 07:57:17;;;;;;;5.33;1.27;;;24.90;21.30;;;;;;5003872;28;20457;-83
2022/07/02 08:04:07;;;;;;;8.47;1.53;;;24.90;18.60;;;;;;4980887;28;20875;-85
2022/07/02 08:22:11;;;;;;;7.43;1.43;;;26.10;14.20;;;;;;4976191;28;20438;-84
2022/07/02 08:25:08;;;;;;;4.00;1.00;;;25.80;8.60;;;;;;4975086;28;20503;-84
2022/07/02 08:27:41;;;;;;;7.33;1.70;;;25.60;5.10;;;;;;4877232;29;20495;-84
2022/07/02 08:30:15;;;;;;;4.67;1.17;;;25.80;7.70;;;;;;4881396;28;20952;-83
2022/07/02 08:33:05;;;;;;;5.57;1.00;;;26.10;4.30;;;;;;4974118;28;20518;-84
2022/07/02 08:35:34;;;;;;;6.03;1.40;;;26.40;1.00;;;;;;4979927;28;20495;-82
2022/07/02 08:38:15;;;;;;;5.20;1.67;;;26.80;3.50;;;;;;4981406;28;20521;-82
2022/07/02 08:40:44;;;;;;;4.33;1.10;;;27.20;4.10;;;;;;4981512;28;20474;-83
2022/07/02 08:43:14;;;;;;;4.87;1.00;;;27.20;1.50;;;;;;4980989;28;20518;-83
2022/07/02 08:45:43;;;;;;;4.43;1.20;;;27.40;1.00;;;;;;4982580;28;20459;-83
2022/07/02 08:48:19;;;;;;;4.30;1.00;;;27.40;1.00;;;;;;4984247;28;20470;-83
2022/07/02 08:51:10;;;;;;;6.47;1.27;;;27.60;1.00;;;;;;4983878;28;20450;-83
2022/07/02 08:53:44;;;;;;;4.60;1.00;;;27.70;1.00;;;;;;4983168;28;20482;-83
2022/07/02 08:56:30;;;;;;;5.87;1.00;;;27.40;1.00;;;;;;4983741;28;20458;-83
2022/07/02 09:01:46;;;;;;;4.50;1.00;;;28.10;1.00;;;;;;4983928;28;20538;-82
2022/07/02 09:04:15;;;;;;;4.87;1.00;;;28.70;1.00;;;;;;4968221;28;20459;-84
2022/07/02 09:06:45;;;;;;;3.70;0.80;;;29.00;1.00;;;;;;4965559;29;20459;-84
2022/07/02 09:09:14;;;;;;;5.30;0.80;;;28.50;1.00;;;;;;4965429;29;20463;-84
2022/07/02 09:11:40;;;;;;;6.60;1.10;;;27.50;1.00;;;;;;4965936;29;20455;-84
2022/07/02 09:14:08;;;;;;;5.07;1.00;;;26.70;1.00;;;;;;4966613;29;20495;-84
2022/07/02 09:16:59;;;;;;;4.23;1.07;;;26.40;1.00;;;;;;4966079;29;20430;-84
2022/07/02 09:19:28;;;;;;;7.60;1.10;;;27.50;1.00;;;;;;4966549;29;20464;-83
2022/07/02 09:21:56;;;;;;;4.43;1.00;;;26.70;1.00;;;;;;4966238;29;20546;-83
2022/07/02 09:24:32;;;;;;;5.70;1.20;;;26.50;1.00;;;;;;4966054;29;20512;-83
2022/07/02 09:27:01;;;;;;;7.30;1.10;;;25.50;1.00;;;;;;4966827;29;20462;-83
2022/07/02 09:29:28;;;;;;;5.10;1.00;;;26.00;1.00;;;;;;4966545;29;20466;-83
2022/07/02 09:31:55;;;;;;;4.50;1.00;;;25.90;1.00;;;;;;4966532;29;20904;-83
2022/07/02 09:34:26;;;;;;;6.37;1.43;;;26.60;1.00;;;;;;4966055;29;20452;-84
2022/07/02 09:36:53;;;;;;;6.10;1.10;;;27.50;1.00;;;;;;4964828;29;20451;-84
2022/07/02 09:39:28;;;;;;;4.40;1.00;;;28.40;1.00;;;;;;4963753;29;20470;-84
2022/07/02 09:41:57;;;;;;;6.00;1.00;;;28.70;1.00;;;;;;4965562;29;20483;-83
2022/07/02 09:44:26;;;;;;;4.20;1.10;;;28.60;1.00;;;;;;4960895;29;20471;-83
2022/07/02 09:46:53;;;;;;;5.37;1.20;;;29.60;1.00;;;;;;4964844;29;20452;-83
2022/07/02 09:49:20;;;;;;;4.50;0.93;;;29.90;1.00;;;;;;4963367;29;20448;-82
2022/07/02 09:51:48;;;;;;;4.63;0.80;;;30.50;1.00;;;;;;4970346;29;20452;-82
2022/07/02 09:54:19;;;;;;;5.13;0.90;;;30.50;1.00;;;;;;4968457;29;20451;-81
2022/07/02 09:56:51;;;;;;;4.20;1.07;;;30.90;1.00;;;;;;4968781;28;20456;-81
2022/07/02 09:59:20;;;;;;;4.10;1.20;;;30.90;1.00;;;;;;4971081;29;20460;-80
2022/07/02 10:01:47;;;;;;;5.83;1.20;;;30.80;1.00;;;;;;4963729;29;20545;-82
2022/07/02 10:04:14;;;;;;;6.63;0.80;;;30.40;1.00;;;;;;4964111;29;20445;-82
2022/07/02 10:06:42;;;;;;;7.20;1.10;;;30.70;1.00;;;;;;4965049;29;20459;-82
2022/07/02 10:09:11;;;;;;;8.47;1.10;;;30.20;1.00;;;;;;4965318;29;20564;-82
2022/07/02 10:11:38;;;;;;;5.40;0.93;;;30.20;1.00;;;;;;4965225;29;20456;-79
2022/07/02 10:14:08;;;;;;;12.00;1.50;;;30.20;1.00;;;;;;4964570;29;20452;-79
2022/07/02 10:16:36;;;;;;;5.80;0.90;;;30.10;1.00;;;;;;4962772;29;20455;-83
2022/07/02 10:19:04;;;;;;;3.80;0.90;;;29.10;1.00;;;;;;4962010;29;20487;-81
2022/07/02 10:21:31;;;;;;;5.87;0.80;;;28.10;1.00;;;;;;4962790;29;20480;-81
2022/07/02 10:23:58;;;;;;;4.23;1.00;;;28.20;1.00;;;;;;4962203;29;20482;-82
2022/07/02 10:26:26;;;;;;;7.60;1.00;;;27.40;1.00;;;;;;4958543;29;20948;-84
2022/07/02 10:28:54;;;;;;;3.90;1.03;;;26.20;1.00;;;;;;4958704;29;20531;-85
2022/07/02 10:31:23;;;;;;;4.70;1.00;;;26.40;1.00;;;;;;4959011;29;20460;-85
2022/07/02 10:34:01;;;;;;;5.30;1.20;;;27.50;1.00;;;;;;4958475;29;20487;-84
2022/07/02 10:36:28;;;;;;;5.57;1.30;;;27.80;1.00;;;;;;4958295;29;20562;-85
2022/07/02 10:39:00;;;;;;;6.53;1.50;;;28.40;1.00;;;;;;4950239;29;20486;-85
2022/07/02 10:41:28;;;;;;;4.47;1.10;;;29.60;1.00;;;;;;4958187;29;20475;-85
2022/07/02 10:43:59;;;;;;;5.13;1.20;;;30.20;1.00;;;;;;4957818;29;20841;-85
2022/07/02 10:46:27;;;;;;;3.63;0.80;;;30.40;1.00;;;;;;4958238;29;20955;-86
2022/07/02 10:48:58;;;;;;;4.17;0.93;;;30.80;1.00;;;;;;4958329;29;20988;-86
2022/07/02 10:51:27;;;;;;;3.80;0.97;;;31.40;1.00;;;;;;4959086;29;20460;-85
2022/07/02 10:53:58;;;;;;;4.17;0.90;;;30.80;1.00;;;;;;4950443;29;20464;-85
2022/07/02 10:56:24;;;;;;;5.00;1.03;;;31.40;1.00;;;;;;4958483;29;20434;-85
2022/07/02 10:58:51;;;;;;;5.10;0.80;;;31.60;1.00;;;;;;4957926;29;20454;-84
2022/07/02 11:01:21;;;;;;;3.83;0.80;;;32.20;1.00;;;;;;4958690;29;20475;-84
2022/07/02 11:03:57;;;;;;;5.87;1.40;;;32.20;1.00;;;;;;4959351;29;20513;-83
2022/07/02 11:06:25;;;;;;;4.10;0.97;;;32.20;1.00;;;;;;4958851;29;20835;-84
2022/07/02 11:08:54;;;;;;;5.83;1.07;;;32.20;1.00;;;;;;4957292;28;20557;-84
2022/07/02 11:11:47;;;;;;;4.17;0.83;;;32.20;1.00;;;;;;4962092;29;20430;-82
2022/07/02 11:14:15;;;;;;;4.10;0.70;;;32.20;1.00;;;;;;4967352;29;20466;-81
2022/07/02 11:16:46;;;;;;;3.60;0.70;;;32.40;1.00;;;;;;4968259;29;20483;-82
2022/07/02 11:19:19;;;;;;;6.70;1.10;;;32.10;1.00;;;;;;4969524;29;20532;-81
2022/07/02 11:21:47;;;;;;;3.80;0.80;;;33.00;1.00;;;;;;4968879;29;20503;-80
2022/07/02 11:24:16;;;;;;;4.10;0.70;;;32.90;1.00;;;;;;4968459;29;20430;-80
2022/07/02 11:26:43;;;;;;;4.80;0.70;;;32.40;1.00;;;;;;4968867;29;20459;-81
2022/07/02 11:29:10;;;;;;;5.10;0.90;;;32.60;1.00;;;;;;4969591;29;20452;-81
2022/07/02 11:31:56;;;;;;;6.07;1.00;;;33.30;1.00;;;;;;4967922;29;20434;-83
2022/07/02 11:34:43;;;;;;;4.70;0.73;;;33.10;1.00;;;;;;4964774;29;20460;-83
2022/07/02 11:37:20;;;;;;;8.53;0.87;;;31.30;1.00;;;;;;4964247;29;20896;-83
2022/07/02 11:39:46;;;;;;;5.67;1.00;;;32.20;1.00;;;;;;4965979;29;20455;-82
2022/07/02 11:42:13;;;;;;;4.70;0.90;;;32.10;1.00;;;;;;4965124;29;20922;-83
2022/07/02 11:44:44;;;;;;;4.73;0.90;;;32.50;1.00;;;;;;4963197;29;20746;-84
2022/07/02 11:47:22;;;;;;;4.60;0.97;;;32.80;1.00;;;;;;4956923;29;20550;-87
2022/07/02 11:50:03;;;;;;;4.10;0.80;;;32.90;1.00;;;;;;4955612;29;20438;-86
2022/07/02 11:52:32;;;;;;;4.83;1.00;;;33.70;1.00;;;;;;4957120;29;20487;-86
2022/07/02 11:54:59;;;;;;;3.70;0.83;;;33.80;1.00;;;;;;4956411;29;20821;-85
2022/07/02 11:57:39;;;;;;;4.47;1.00;;;33.60;1.00;;;;;;4956106;29;20453;-86
2022/07/02 12:00:07;;;;;;;5.60;1.00;;;32.90;1.00;;;;;;4956393;29;20462;-86
2022/07/02 12:02:48;;;;;;;3.60;0.70;;;31.90;1.00;;;;;;4956679;29;20430;-86
2022/07/02 12:05:37;;;;;;;4.20;0.70;;;32.40;1.00;;;;;;4956838;29;20458;-86
2022/07/02 12:08:09;;;;;;;5.00;0.93;;;33.50;1.00;;;;;;4915997;29;20491;-86
2022/07/02 12:10:48;;;;;;;3.50;0.70;;;34.10;1.00;;;;;;4915950;29;20550;-86
2022/07/02 12:13:31;;;;;;;5.37;1.20;;;34.40;1.00;;;;;;4956491;29;20464;-85
2022/07/02 12:15:58;;;;;;;3.60;0.70;;;34.10;1.00;;;;;;4957777;29;20455;-84
2022/07/02 12:18:28;;;;;;;5.23;0.87;;;34.10;1.00;;;;;;4962353;29;20476;-83
2022/07/02 12:20:56;;;;;;;4.50;1.03;;;34.40;1.00;;;;;;4959356;28;20464;-84
2022/07/02 12:23:23;;;;;;;4.20;1.00;;;34.80;1.00;;;;;;4958370;29;20459;-84
2022/07/02 12:25:49;;;;;;;3.90;0.80;;;35.20;1.00;;;;;;4957905;29;20466;-84
2022/07/02 12:31:02;;;;;;;4.60;0.90;;;36.10;1.00;;;;;;4977517;28;20855;-86
2022/07/02 12:33:33;;;;;;;4.70;0.93;;;34.30;1.00;;;;;;4975390;28;20438;-87
2022/07/02 12:36:03;;;;;;;3.90;0.83;;;33.40;1.00;;;;;;4976159;28;20890;-87
2022/07/02 12:38:41;;;;;;;6.00;0.90;;;33.50;1.00;;;;;;4975619;28;20514;-86
2022/07/02 12:41:08;;;;;;;3.80;0.90;;;33.30;1.00;;;;;;4976317;28;20451;-87
2022/07/02 12:43:36;;;;;;;3.93;0.87;;;33.50;1.00;;;;;;4976144;28;20493;-87
2022/07/02 12:46:07;;;;;;;3.50;0.70;;;33.90;1.00;;;;;;4976434;28;20447;-86
2022/07/02 12:48:44;;;;;;;3.70;0.90;;;34.50;1.00;;;;;;4975910;28;20481;-87
2022/07/02 12:51:19;;;;;;;4.37;1.40;;;34.60;1.00;;;;;;4976146;28;20855;-86
2022/07/02 12:56:46;;;;;;;6.63;0.97;;;35.20;1.00;;;;;;4974923;28;20440;-85
2022/07/02 12:59:16;;;;;;;7.73;1.10;;;35.30;1.00;;;;;;4976587;28;20428;-88
2022/07/02 13:01:42;;;;;;;4.60;0.90;;;35.40;1.00;;;;;;4976115;28;20451;-87
2022/07/02 13:04:09;;;;;;;4.10;0.80;;;35.80;1.00;;;;;;4975847;28;20493;-84
2022/07/02 13:06:38;;;;;;;5.90;1.10;;;34.80;1.00;;;;;;4976304;28;20501;-84
2022/07/02 13:09:28;;;;;;;7.10;1.13;;;35.60;1.00;;;;;;4976048;28;20512;-83
2022/07/02 13:11:56;;;;;;;4.20;1.00;;;35.90;1.00;;;;;;4974855;28;20449;-84
2022/07/02 13:14:25;;;;;;;3.77;0.80;;;37.20;1.00;;;;;;4974985;28;20438;-85
2022/07/02 13:16:55;;;;;;;3.80;0.80;;;37.60;1.00;;;;;;4974884;28;20926;-85
2022/07/02 13:19:25;;;;;;;4.50;0.90;;;36.70;1.00;;;;;;4975542;28;20453;-87